Time;durP1;ratioP1;P1;durP2;ratioP2;P2;SDS_P1;SDS_P2;PMS_P1;PMS_P2;Temp;Humidity;BMP_temperature;BMP_pressure;BME280_temperature;BME280_humidity;BME280_pressure;Samples;Min_cycle;Max_cycle;Signal;HPM_P1;HPM_P2
2023/12/20 00:00:47;;;;;;;2.85;2.10;;;;;;;-3.57;63.94;96663.94;6075482;29;20422;-66
2023/12/20 00:03:49;;;;;;;2.40;1.80;;;;;;;-3.58;63.17;96677.69;6076746;29;20036;-67
2023/12/20 00:06:52;;;;;;;3.33;2.10;;;;;;;-3.49;63.74;96680.13;6076334;29;20048;-66
2023/12/20 00:09:54;;;;;;;3.03;2.25;;;;;;;-3.51;63.64;96671.59;6076427;29;20094;-66
2023/12/20 00:12:58;;;;;;;2.75;1.95;;;;;;;-3.58;64.22;96682.84;6076691;29;20044;-67
2023/12/20 00:16:00;;;;;;;3.00;2.00;;;;;;;-3.57;64.69;96677.66;6076923;29;20507;-66
2023/12/20 00:19:04;;;;;;;2.83;2.10;;;;;;;-3.59;64.26;96676.84;6076534;29;20049;-66
2023/12/20 00:22:09;;;;;;;3.10;1.55;;;;;;;-3.56;64.75;96686.25;6076039;29;20048;-66
2023/12/20 00:25:14;;;;;;;2.15;1.90;;;;;;;-3.42;64.79;96692.06;6076313;29;20160;-66
2023/12/20 00:28:21;;;;;;;4.07;2.05;;;;;;;-3.37;64.78;96687.69;6076735;29;20127;-66
2023/12/20 00:31:25;;;;;;;3.90;2.55;;;;;;;-3.44;65.35;96680.94;6076167;29;20052;-66
2023/12/20 00:34:29;;;;;;;3.30;2.00;;;;;;;-3.39;65.18;96666.31;6076409;29;20052;-66
2023/12/20 00:37:30;;;;;;;5.35;2.97;;;;;;;-3.49;65.51;96657.00;6076270;29;20148;-66
2023/12/20 00:40:36;;;;;;;4.43;2.78;;;;;;;-3.50;65.43;96655.31;6076584;29;20522;-66
2023/12/20 00:43:40;;;;;;;2.10;1.88;;;;;;;-3.66;65.96;96640.06;6075340;29;20427;-66
2023/12/20 00:46:44;;;;;;;3.58;2.05;;;;;;;-3.75;66.14;96645.31;6075658;29;20419;-66
2023/12/20 00:49:45;;;;;;;3.08;2.45;;;;;;;-3.80;65.82;96647.09;6076466;29;20435;-66
2023/12/20 00:52:49;;;;;;;1.60;1.40;;;;;;;-3.80;66.07;96631.66;6075934;29;20055;-67
2023/12/20 00:55:53;;;;;;;2.03;1.60;;;;;;;-3.81;65.88;96635.13;6076203;29;20060;-66
2023/12/20 00:58:57;;;;;;;2.60;1.42;;;;;;;-3.70;65.92;96638.41;6083545;29;20059;-68
2023/12/20 01:02:04;;;;;;;2.00;1.77;;;;;;;-3.77;65.71;96641.91;6099689;29;20051;-66
2023/12/20 01:05:11;;;;;;;2.72;1.77;;;;;;;-3.76;65.76;96628.19;6099352;29;20044;-65
2023/12/20 01:08:17;;;;;;;1.70;1.38;;;;;;;-3.97;66.16;96631.00;6083569;29;20055;-66
2023/12/20 01:11:23;;;;;;;2.22;1.83;;;;;;;-4.03;66.20;96631.09;6099298;29;20044;-67
2023/12/20 01:14:24;;;;;;;2.30;2.08;;;;;;;-3.98;66.38;96626.75;6098645;29;20051;-66
2023/12/20 01:17:26;;;;;;;1.77;1.58;;;;;;;-4.08;66.65;96614.03;6099803;29;20055;-65
2023/12/20 01:20:27;;;;;;;3.05;2.13;;;;;;;-3.98;65.97;96601.91;6103349;29;20432;-66
2023/12/20 01:23:32;;;;;;;1.98;1.42;;;;;;;-4.11;66.15;96610.63;6103893;29;20506;-66
2023/12/20 01:26:34;;;;;;;3.17;2.22;;;;;;;-4.36;66.59;96604.88;6086244;29;20142;-66
2023/12/20 01:29:35;;;;;;;1.63;1.52;;;;;;;-4.37;67.21;96587.78;6102986;29;20055;-66
2023/12/20 01:32:42;;;;;;;3.25;1.40;;;;;;;-4.26;67.45;96593.66;6103899;29;20052;-66
2023/12/20 01:35:46;;;;;;;1.63;1.45;;;;;;;-4.36;67.22;96585.22;6103313;29;20048;-65
2023/12/20 01:38:50;;;;;;;1.80;1.45;;;;;;;-4.19;66.96;96603.00;6103437;29;20044;-66
2023/12/20 01:41:51;;;;;;;1.67;1.58;;;;;;;-4.41;67.57;96601.53;6103266;29;20040;-66
2023/12/20 01:44:55;;;;;;;1.98;1.60;;;;;;;-4.26;66.96;96606.50;6102955;29;20055;-66
2023/12/20 01:48:02;;;;;;;2.28;1.98;;;;;;;-4.42;67.54;96592.13;6086286;29;20052;-66
2023/12/20 01:51:04;;;;;;;2.35;2.15;;;;;;;-4.35;67.75;96611.75;6102139;29;20630;-65
2023/12/20 01:54:08;;;;;;;4.07;2.50;;;;;;;-4.25;67.40;96612.50;6103048;29;20040;-66
2023/12/20 01:57:12;;;;;;;1.20;1.10;;;;;;;-4.15;67.10;96620.09;6085945;29;20048;-66
2023/12/20 02:00:14;;;;;;;4.00;2.05;;;;;;;-4.29;67.31;96621.94;6101931;29;20510;-66
2023/12/20 02:03:21;;;;;;;3.45;2.47;;;;;;;-4.24;67.23;96619.34;6102567;29;20534;-66
2023/12/20 02:06:25;;;;;;;4.80;2.65;;;;;;;-4.21;67.04;96629.59;6102470;29;20044;-66
2023/12/20 02:09:30;;;;;;;3.92;2.28;;;;;;;-4.24;67.45;96625.34;6101884;29;20052;-66
2023/12/20 02:12:31;;;;;;;3.05;2.30;;;;;;;-4.22;67.50;96623.56;6102384;29;20040;-66
2023/12/20 02:15:38;;;;;;;2.15;1.90;;;;;;;-4.01;67.13;96622.50;6102443;29;20044;-66
2023/12/20 02:18:44;;;;;;;2.60;2.28;;;;;;;-3.95;66.81;96629.28;6102988;29;20562;-66
2023/12/20 02:21:45;;;;;;;2.90;2.28;;;;;;;-3.98;66.95;96626.75;6101466;29;20453;-66
2023/12/20 02:24:50;;;;;;;2.05;1.17;;;;;;;-3.92;66.57;96631.81;6102112;29;20048;-66
2023/12/20 02:27:55;;;;;;;1.90;1.73;;;;;;;-4.01;66.61;96626.78;6102209;29;20566;-65
2023/12/20 02:30:56;;;;;;;3.05;1.70;;;;;;;-4.02;66.84;96627.63;6101263;29;20052;-66
2023/12/20 02:34:00;;;;;;;1.60;1.50;;;;;;;-4.08;67.10;96621.72;6101814;29;20044;-66
2023/12/20 02:37:07;;;;;;;3.00;2.15;;;;;;;-4.20;67.23;96609.00;6101805;29;20052;-66
2023/12/20 02:40:13;;;;;;;3.75;2.38;;;;;;;-4.25;67.38;96597.06;6101712;29;20044;-66
2023/12/20 02:43:17;;;;;;;4.22;2.17;;;;;;;-4.44;68.35;96596.44;6101692;29;20045;-66
2023/12/20 02:46:24;;;;;;;2.33;2.13;;;;;;;-4.40;68.01;96598.09;6101646;29;20426;-67
2023/12/20 02:49:28;;;;;;;1.27;1.13;;;;;;;-4.19;66.90;96597.88;6101532;29;20052;-66
2023/12/20 02:52:29;;;;;;;2.15;1.95;;;;;;;-4.23;67.06;96601.34;6101664;29;20063;-66
2023/12/20 02:55:31;;;;;;;3.95;2.47;;;;;;;-4.27;67.33;96594.53;6101543;29;20040;-66
2023/12/20 02:58:38;;;;;;;3.70;1.52;;;;;;;-4.23;67.25;96587.66;6100932;29;20066;-66
2023/12/20 03:01:45;;;;;;;2.78;2.22;;;;;;;-4.17;67.28;96592.69;6101243;29;20047;-67
2023/12/20 03:04:49;;;;;;;2.78;2.13;;;;;;;-4.22;67.25;96586.75;6100497;29;20434;-67
2023/12/20 03:07:51;;;;;;;3.85;3.00;;;;;;;-4.18;67.26;96593.59;6100435;29;20056;-66
2023/12/20 03:10:54;;;;;;;5.35;2.67;;;;;;;-4.11;67.31;96606.31;6100860;29;20387;-66
2023/12/20 03:13:58;;;;;;;3.10;2.67;;;;;;;-3.99;67.08;96599.34;6100651;29;20054;-67
2023/12/20 03:17:02;;;;;;;2.42;1.85;;;;;;;-4.02;67.03;96602.78;6101074;29;20036;-66
2023/12/20 03:20:04;;;;;;;3.33;2.90;;;;;;;-4.13;67.21;96613.22;6100437;29;20075;-66
2023/12/20 03:23:06;;;;;;;5.03;2.10;;;;;;;-4.03;66.93;96589.97;6100164;29;20433;-66
2023/12/20 03:26:08;;;;;;;3.38;2.17;;;;;;;-4.14;67.54;96601.22;6099938;29;20052;-66
2023/12/20 03:29:12;;;;;;;2.65;2.25;;;;;;;-4.18;67.37;96584.16;6100950;29;20052;-66
2023/12/20 03:32:19;;;;;;;2.47;1.95;;;;;;;-4.07;67.49;96577.16;6100784;29;20044;-67
2023/12/20 03:35:23;;;;;;;2.83;2.42;;;;;;;-4.21;67.67;96573.06;6100293;29;20052;-66
2023/12/20 03:38:24;;;;;;;2.20;2.03;;;;;;;-4.17;67.67;96569.59;6100251;29;20426;-66
2023/12/20 03:41:25;;;;;;;4.32;2.88;;;;;;;-4.29;68.27;96591.13;6099745;29;20052;-66
2023/12/20 03:44:27;;;;;;;4.32;3.00;;;;;;;-4.30;68.03;96553.47;6083600;29;20059;-67
2023/12/20 03:47:28;;;;;;;4.07;2.88;;;;;;;-4.21;67.86;96557.66;6099577;29;20692;-66
2023/12/20 03:50:32;;;;;;;3.25;2.67;;;;;;;-4.19;67.44;96561.91;6099714;29;20168;-66
2023/12/20 03:53:36;;;;;;;3.95;2.65;;;;;;;-4.30;67.97;96550.91;6099452;29;20051;-66
2023/12/20 03:56:38;;;;;;;6.00;4.10;;;;;;;-4.40;68.43;96536.47;6100088;29;20523;-66
2023/12/20 03:59:40;;;;;;;3.50;2.60;;;;;;;-4.47;68.80;96542.53;6099058;29;20431;-67
2023/12/20 04:02:47;;;;;;;7.22;4.35;;;;;;;-4.31;68.60;96551.75;6082856;29;20430;-66
2023/12/20 04:05:53;;;;;;;9.45;5.45;;;;;;;-4.56;68.95;96539.22;6100040;29;20605;-66
2023/12/20 04:08:55;;;;;;;6.50;4.07;;;;;;;-4.20;68.08;96539.63;6099152;29;20581;-67
2023/12/20 04:12:01;;;;;;;8.52;5.22;;;;;;;-4.11;68.11;96547.22;6099874;29;20080;-65
2023/12/20 04:15:08;;;;;;;10.80;4.93;;;;;;;-3.99;67.40;96522.25;6099534;29;20191;-66
2023/12/20 04:18:15;;;;;;;12.65;7.22;;;;;;;-4.24;67.95;96517.44;6083119;29;20139;-67
2023/12/20 04:21:19;;;;;;;9.25;5.88;;;;;;;-4.11;67.87;96502.69;6099479;29;20048;-66
2023/12/20 04:24:26;;;;;;;7.68;4.90;;;;;;;-4.07;68.06;96510.34;6099917;29;20044;-66
2023/12/20 04:27:27;;;;;;;5.88;4.55;;;;;;;-4.00;68.46;96505.13;6082171;29;20418;-67
2023/12/20 04:30:30;;;;;;;9.30;6.45;;;;;;;-4.13;68.85;96500.16;6099904;29;20411;-67
2023/12/20 04:33:32;;;;;;;10.73;5.22;;;;;;;-4.13;68.44;96495.03;6099526;29;20040;-66
2023/12/20 04:36:35;;;;;;;8.45;5.40;;;;;;;-4.11;68.47;96497.56;6099848;29;20051;-67
2023/12/20 04:39:37;;;;;;;8.55;5.20;;;;;;;-4.03;68.16;96505.19;6082509;29;20070;-66
2023/12/20 04:42:46;;;;;;;6.70;4.60;;;;;;;-4.01;68.33;96503.44;6082821;29;20056;-66
2023/12/20 04:45:50;;;;;;;6.70;5.07;;;;;;;-3.89;67.69;96505.84;6099826;29;20040;-66
2023/12/20 04:48:51;;;;;;;10.32;5.97;;;;;;;-3.91;68.13;96499.84;6098728;29;20213;-66
2023/12/20 04:51:56;;;;;;;11.68;7.03;;;;;;;-3.98;68.21;96523.97;6099032;29;20048;-67
2023/12/20 04:54:57;;;;;;;8.10;4.43;;;;;;;-3.89;68.00;96519.53;6087067;29;20056;-67
2023/12/20 04:57:59;;;;;;;6.00;4.03;;;;;;;-3.89;67.69;96526.41;6103482;29;20052;-64
2023/12/20 05:01:03;;;;;;;8.80;4.47;;;;;;;-3.86;68.04;96518.63;6104344;29;20135;-66
2023/12/20 05:04:07;;;;;;;6.35;4.28;;;;;;;-3.91;68.08;96507.56;6103988;29;20479;-66
2023/12/20 05:07:11;;;;;;;11.77;7.72;;;;;;;-3.96;68.42;96506.78;6103927;29;20459;-67
2023/12/20 05:10:12;;;;;;;7.63;5.47;;;;;;;-3.97;68.28;96516.22;6103190;29;20483;-68
2023/12/20 05:13:14;;;;;;;9.38;5.50;;;;;;;-3.88;68.05;96517.81;6103276;29;20063;-66
2023/12/20 05:16:20;;;;;;;10.63;6.45;;;;;;;-4.03;68.69;96510.31;6103068;29;20048;-66
2023/12/20 05:19:23;;;;;;;6.97;4.82;;;;;;;-3.86;68.32;96504.06;6103335;29;20585;-66
2023/12/20 05:22:25;;;;;;;6.95;5.13;;;;;;;-3.77;67.80;96508.22;6103322;29;20056;-66
2023/12/20 05:25:31;;;;;;;8.43;4.95;;;;;;;-3.69;67.67;96496.09;6103211;29;20541;-67
2023/12/20 05:28:32;;;;;;;9.27;6.32;;;;;;;-3.70;67.89;96504.69;6086235;29;20454;-65
2023/12/20 05:31:40;;;;;;;8.13;4.82;;;;;;;-3.67;67.45;96509.78;6103553;29;20052;-67
2023/12/20 05:34:45;;;;;;;5.07;3.88;;;;;;;-3.67;67.76;96508.94;6102913;29;20048;-66
2023/12/20 05:37:53;;;;;;;5.40;4.30;;;;;;;-3.63;67.46;96511.44;6102883;29;20052;-66
2023/12/20 05:40:56;;;;;;;5.75;3.97;;;;;;;-3.68;67.92;96491.81;6103137;29;20052;-67
2023/12/20 05:44:00;;;;;;;6.82;4.85;;;;;;;-3.73;68.15;96504.75;6102374;29;20438;-66
2023/12/20 05:47:02;;;;;;;5.32;3.50;;;;;;;-3.66;68.50;96511.47;6102860;29;20194;-66
2023/12/20 05:50:06;;;;;;;7.07;4.28;;;;;;;-3.80;68.41;96486.84;6103113;29;20036;-67
2023/12/20 05:53:10;;;;;;;6.18;4.57;;;;;;;-3.74;68.64;96495.31;6102975;29;20051;-67
2023/12/20 05:56:12;;;;;;;4.68;3.30;;;;;;;-3.92;68.65;96441.63;6102281;29;20056;-66
2023/12/20 05:59:18;;;;;;;5.47;3.70;;;;;;;-3.77;69.32;96482.50;6102059;29;20150;-67
2023/12/20 06:02:25;;;;;;;6.38;4.15;;;;;;;-3.69;69.04;96470.38;6102824;29;20119;-66
2023/12/20 06:05:26;;;;;;;6.53;5.28;;;;;;;-3.59;69.42;96472.81;6101017;29;20044;-67
2023/12/20 06:08:27;;;;;;;4.88;3.63;;;;;;;-3.45;69.05;96483.75;6101945;29;20541;-67
2023/12/20 06:11:29;;;;;;;6.00;3.90;;;;;;;-3.42;69.38;96473.41;6102170;29;20048;-65
2023/12/20 06:14:33;;;;;;;4.18;3.28;;;;;;;-3.35;69.55;96462.13;6101602;29;20055;-68
2023/12/20 06:17:37;;;;;;;4.35;2.85;;;;;;;-3.36;69.90;96460.44;6102463;29;20349;-65
2023/12/20 06:20:38;;;;;;;4.13;2.55;;;;;;;-3.20;69.30;96454.19;6101495;29;20040;-68
2023/12/20 06:23:47;;;;;;;6.82;2.45;;;;;;;-2.96;69.33;96447.72;6102573;29;20418;-67
2023/12/20 06:26:51;;;;;;;2.78;1.75;;;;;;;-2.99;68.76;96436.63;6101927;29;20048;-66
2023/12/20 06:29:52;;;;;;;5.15;2.90;;;;;;;-2.97;68.97;96424.59;6101598;29;20048;-66
2023/12/20 06:32:58;;;;;;;4.35;3.42;;;;;;;-3.00;69.47;96434.91;6101415;29;20052;-65
2023/12/20 06:36:02;;;;;;;2.42;2.22;;;;;;;-2.89;69.12;96422.69;6101346;29;20047;-67
2023/12/20 06:39:06;;;;;;;2.70;2.10;;;;;;;-2.83;68.82;96448.34;6101148;29;20146;-67
2023/12/20 06:42:10;;;;;;;2.70;2.15;;;;;;;-2.83;68.97;96426.88;6103012;29;20517;-67
2023/12/20 06:45:12;;;;;;;3.35;2.38;;;;;;;-2.80;68.80;96412.25;6101487;29;20048;-66
2023/12/20 06:48:14;;;;;;;2.45;1.85;;;;;;;-2.83;68.95;96411.44;6100752;29;20542;-64
2023/12/20 06:51:19;;;;;;;3.33;2.05;;;;;;;-2.82;69.09;96423.44;6083872;29;20075;-66
2023/12/20 06:54:23;;;;;;;3.00;2.00;;;;;;;-2.75;69.24;96420.69;6101588;29;20123;-66
2023/12/20 06:57:28;;;;;;;3.53;2.17;;;;;;;-2.75;69.34;96409.56;6100989;29;20055;-67
2023/12/20 07:00:30;;;;;;;4.10;2.33;;;;;;;-2.78;69.53;96431.06;6100510;29;20075;-66
2023/12/20 07:03:34;;;;;;;1.83;1.67;;;;;;;-2.78;69.38;96381.28;6100405;29;20052;-67
2023/12/20 07:06:37;;;;;;;1.70;1.60;;;;;;;-2.76;69.52;96387.28;6101162;29;20167;-66
2023/12/20 07:09:40;;;;;;;2.72;2.22;;;;;;;-2.75;68.81;96364.06;6101162;29;20047;-67
2023/12/20 07:12:42;;;;;;;3.27;2.47;;;;;;;-2.79;69.60;96353.88;6101012;29;20044;-67
2023/12/20 07:15:48;;;;;;;2.70;1.38;;;;;;;-2.82;69.48;96370.22;6100962;29;20044;-66
2023/12/20 07:18:49;;;;;;;1.67;1.42;;;;;;;-2.72;69.47;96369.16;6100307;29;20060;-66
2023/12/20 07:21:53;;;;;;;2.47;2.05;;;;;;;-2.71;68.71;96367.44;6100892;29;20040;-66
2023/12/20 07:24:54;;;;;;;3.08;2.05;;;;;;;-2.82;68.85;96380.53;6100044;29;20175;-66
2023/12/20 07:28:01;;;;;;;4.00;1.90;;;;;;;-2.86;68.75;96373.75;6101199;29;20048;-66
2023/12/20 07:31:05;;;;;;;1.73;1.50;;;;;;;-2.87;68.51;96356.59;6100624;29;20051;-66
2023/12/20 07:34:09;;;;;;;2.83;2.47;;;;;;;-2.87;68.96;96379.75;6083233;29;20187;-67
2023/12/20 07:37:11;;;;;;;4.65;2.92;;;;;;;-2.89;68.43;96368.63;6099953;29;20063;-66
2023/12/20 07:40:13;;;;;;;3.00;2.15;;;;;;;-2.93;69.16;96346.41;6099622;29;20426;-66
2023/12/20 07:43:17;;;;;;;5.05;2.25;;;;;;;-3.21;68.67;96280.06;6100214;29;20056;-67
2023/12/20 07:46:25;;;;;;;2.28;1.23;;;;;;;-2.73;68.75;96318.53;6100623;29;20048;-66
2023/12/20 07:49:26;;;;;;;4.78;2.30;;;;;;;-2.72;68.55;96333.13;6083348;29;20538;-66
2023/12/20 07:52:29;;;;;;;2.30;1.92;;;;;;;-2.79;69.21;96318.66;6100591;29;20051;-66
2023/12/20 07:55:31;;;;;;;4.07;2.80;;;;;;;-2.90;69.46;96306.91;6099801;29;20044;-68
2023/12/20 07:58:34;;;;;;;2.92;2.20;;;;;;;-2.78;69.57;96307.47;6099925;29;20051;-67
2023/12/20 08:01:42;;;;;;;2.78;1.48;;;;;;;-2.78;69.59;96302.31;6100274;29;20051;-66
2023/12/20 08:04:46;;;;;;;2.58;2.00;;;;;;;-2.67;69.24;96298.69;6100295;29;20044;-66
2023/12/20 08:07:47;;;;;;;3.42;1.98;;;;;;;-2.69;69.46;96295.28;6099859;29;20059;-66
2023/12/20 08:10:49;;;;;;;3.35;1.77;;;;;;;-2.59;69.27;96289.91;6100095;29;20044;-68
2023/12/20 08:13:51;;;;;;;2.90;2.05;;;;;;;-2.71;69.66;96278.16;6100120;29;20051;-66
2023/12/20 08:16:57;;;;;;;2.05;1.80;;;;;;;-2.58;69.45;96280.44;6100146;29;20133;-67
2023/12/20 08:19:59;;;;;;;3.70;2.03;;;;;;;-2.50;69.59;96275.97;6099759;29;20044;-66
2023/12/20 08:23:07;;;;;;;2.65;1.42;;;;;;;-2.37;69.19;96279.94;6083315;29;20052;-66
2023/12/20 08:26:12;;;;;;;2.92;1.90;;;;;;;-2.27;68.93;96289.13;6099942;29;20672;-66
2023/12/20 08:29:21;;;;;;;3.45;2.35;;;;;;;-2.01;67.84;96273.94;6098977;29;20056;-67
2023/12/20 08:32:27;;;;;;;2.70;2.10;;;;;;;-1.91;66.77;96276.25;6099143;29;20055;-66
2023/12/20 08:35:33;;;;;;;4.45;3.55;;;;;;;-2.04;67.81;96269.69;6099276;29;20529;-67
2023/12/20 08:38:37;;;;;;;4.43;1.80;;;;;;;-1.90;67.22;96266.78;6099848;29;20447;-67
2023/12/20 08:41:41;;;;;;;1.95;1.60;;;;;;;-1.96;67.58;96267.78;6099733;29;20044;-67
2023/12/20 08:44:45;;;;;;;2.55;1.55;;;;;;;-1.88;67.29;96234.91;6099783;29;20052;-66
2023/12/20 08:47:51;;;;;;;2.92;1.88;;;;;;;-1.95;67.37;96233.38;6099485;29;20079;-66
2023/12/20 08:50:54;;;;;;;1.60;1.45;;;;;;;-1.98;67.74;96237.75;6098765;29;20063;-67
2023/12/20 08:53:55;;;;;;;1.52;0.90;;;;;;;-1.71;67.02;96220.72;6082259;29;20090;-67
2023/12/20 08:56:59;;;;;;;2.25;1.38;;;;;;;-1.79;67.16;96222.66;6098591;29;20433;-66
2023/12/20 09:00:04;;;;;;;1.75;1.00;;;;;;;-1.75;67.54;96237.19;6098504;29;20466;-67
2023/12/20 09:03:12;;;;;;;1.77;1.23;;;;;;;-1.92;68.36;96202.38;6081767;29;20049;-67
2023/12/20 09:06:15;;;;;;;2.13;1.00;;;;;;;-1.78;68.84;96219.19;6098334;29;20075;-67
2023/12/20 09:09:19;;;;;;;3.25;1.08;;;;;;;-1.76;69.56;96196.78;6099452;29;20040;-66
2023/12/20 09:12:23;;;;;;;2.67;1.30;;;;;;;-1.76;70.12;96207.09;6099491;29;20044;-67
2023/12/20 09:15:30;;;;;;;0.80;0.80;;;;;;;-1.88;70.62;96183.34;6083164;29;20059;-66
2023/12/20 09:18:34;;;;;;;2.35;1.00;;;;;;;-2.00;71.05;96172.53;6099107;29;20047;-66
2023/12/20 09:21:36;;;;;;;1.38;0.63;;;;;;;-2.01;71.72;96171.66;6099015;29;20111;-66
2023/12/20 09:24:40;;;;;;;1.13;0.50;;;;;;;-1.93;72.00;96185.19;6099114;29;20044;-67
2023/12/20 09:27:42;;;;;;;0.98;0.75;;;;;;;-1.97;71.69;96193.91;6098974;29;20142;-66
2023/12/20 09:30:46;;;;;;;0.40;0.40;;;;;;;-1.99;72.21;96174.19;6099164;29;20052;-68
2023/12/20 09:33:51;;;;;;;2.03;0.85;;;;;;;-2.07;72.21;96166.66;6098492;29;20048;-66
2023/12/20 09:36:53;;;;;;;1.55;1.00;;;;;;;-2.03;72.24;96201.81;6098585;29;20051;-67
2023/12/20 09:39:55;;;;;;;1.50;0.60;;;;;;;-2.00;72.00;96168.19;6102014;29;20048;-66
2023/12/20 09:43:02;;;;;;;2.05;0.73;;;;;;;-2.00;72.54;96185.41;6102215;29;20098;-66
2023/12/20 09:46:10;;;;;;;0.50;0.50;;;;;;;-2.03;72.40;96197.47;6103077;29;20048;-67
2023/12/20 09:49:13;;;;;;;0.60;0.60;;;;;;;-2.02;72.57;96180.28;6102404;29;20052;-66
2023/12/20 09:52:18;;;;;;;0.98;0.68;;;;;;;-1.87;72.51;96190.19;6102587;29;20052;-66
2023/12/20 09:55:26;;;;;;;0.40;0.40;;;;;;;-1.91;72.10;96211.78;6102749;29;20507;-66
2023/12/20 09:58:38;;;;;;;0.50;0.50;;;;;;;-1.92;72.16;96181.75;6102435;29;20063;-66
2023/12/20 10:01:40;;;;;;;1.40;0.70;;;;;;;-1.92;72.37;96197.22;6102091;29;20048;-67
2023/12/20 10:04:49;;;;;;;0.98;0.60;;;;;;;-1.88;72.60;96193.66;6101887;29;20055;-67
2023/12/20 10:07:56;;;;;;;0.40;0.40;;;;;;;-1.90;73.10;96198.00;6102707;29;20050;-66
2023/12/20 10:11:06;;;;;;;0.68;0.68;;;;;;;-1.88;73.13;96192.81;6102321;29;20055;-67
2023/12/20 10:14:08;;;;;;;0.30;0.30;;;;;;;-1.90;73.13;96177.38;6102093;29;20062;-68
2023/12/20 10:17:14;;;;;;;0.25;0.20;;;;;;;-1.88;73.39;96167.03;6101981;29;20059;-68
2023/12/20 10:20:22;;;;;;;0.70;0.55;;;;;;;-1.94;73.12;96183.50;6102333;29;20044;-67
2023/12/20 10:23:30;;;;;;;0.25;0.25;;;;;;;-1.76;73.30;96176.16;6101731;29;20055;-67
2023/12/20 10:26:35;;;;;;;0.70;0.50;;;;;;;-1.92;73.95;96157.69;6101702;29;20138;-67
2023/12/20 10:29:41;;;;;;;1.00;0.50;;;;;;;-1.91;73.48;96160.22;6102366;29;20499;-67
2023/12/20 10:32:42;;;;;;;0.40;0.40;;;;;;;-1.84;73.61;96153.16;6101408;29;20104;-66
2023/12/20 10:35:43;;;;;;;0.30;0.30;;;;;;;-1.91;74.03;96147.31;6102219;29;20064;-67
2023/12/20 10:38:50;;;;;;;0.80;0.80;;;;;;;-1.84;73.35;96133.38;6085208;29;20139;-67
2023/12/20 10:41:54;;;;;;;0.38;0.38;;;;;;;-1.75;73.37;96162.38;6101522;29;20059;-68
2023/12/20 10:44:56;;;;;;;1.00;0.60;;;;;;;-1.69;72.83;96151.91;6100545;29;20052;-65
2023/12/20 10:48:01;;;;;;;0.95;0.38;;;;;;;-1.70;72.96;96150.19;6102117;29;20052;-67
2023/12/20 10:51:07;;;;;;;0.40;0.40;;;;;;;-1.76;73.81;96145.19;6101229;29;20044;-67
2023/12/20 10:54:12;;;;;;;0.38;0.38;;;;;;;-1.74;73.46;96133.13;6101092;29;20135;-68
2023/12/20 10:57:18;;;;;;;0.40;0.30;;;;;;;-1.76;73.90;96171.00;6101448;29;20048;-66
2023/12/20 11:00:25;;;;;;;1.30;0.38;;;;;;;-1.73;73.57;96145.94;6101264;29;20056;-67
2023/12/20 11:03:37;;;;;;;0.45;0.45;;;;;;;-1.74;73.63;96128.81;6101231;29;20052;-66
2023/12/20 11:07:13;;;;;;;0.40;0.40;;;;;;;-1.68;73.89;96148.41;6100760;29;20143;-66
2023/12/20 11:10:24;;;;;;;0.28;0.28;;;;;;;-1.78;73.88;96126.34;6060122;29;20055;-66
2023/12/20 11:13:44;;;;;;;0.20;0.20;;;;;;;-1.73;73.99;96134.78;6101287;29;20134;-66
2023/12/20 11:16:45;;;;;;;0.32;0.32;;;;;;;-1.75;72.84;96131.44;6101425;29;20135;-65
2023/12/20 11:19:53;;;;;;;0.47;0.47;;;;;;;-1.68;73.28;96127.78;6083706;29;20601;-66
2023/12/20 11:23:00;;;;;;;0.20;0.20;;;;;;;-1.70;72.99;96121.81;6100982;29;20044;-68
2023/12/20 11:26:10;;;;;;;0.63;0.30;;;;;;;-1.73;73.72;96145.13;6100683;29;20044;-67
2023/12/20 11:29:33;;;;;;;0.90;0.20;;;;;;;-1.54;72.54;96135.13;6100728;29;20048;-67
2023/12/20 11:32:37;;;;;;;0.95;0.60;;;;;;;-1.51;72.33;96138.44;6100913;29;20414;-67
2023/12/20 11:35:41;;;;;;;0.93;0.60;;;;;;;-1.54;72.36;96129.97;6100711;29;20479;-66
2023/12/20 11:39:00;;;;;;;0.70;0.38;;;;;;;-1.54;72.09;96151.44;6098427;29;20087;-67
2023/12/20 11:42:09;;;;;;;0.40;0.40;;;;;;;-1.39;71.75;96145.84;6083768;29;20040;-67
2023/12/20 11:45:15;;;;;;;0.35;0.35;;;;;;;-1.34;71.75;96142.28;6083452;29;20056;-67
2023/12/20 11:48:20;;;;;;;0.30;0.30;;;;;;;-1.31;71.49;96152.50;6100281;29;20048;-67
2023/12/20 11:51:27;;;;;;;0.28;0.28;;;;;;;-1.41;71.52;96142.47;6100135;29;20040;-67
2023/12/20 11:54:32;;;;;;;0.40;0.30;;;;;;;-1.24;71.97;96154.03;6099071;29;20100;-67
2023/12/20 11:57:38;;;;;;;0.40;0.40;;;;;;;-1.16;71.45;96136.56;6099520;29;20058;-67
2023/12/20 12:00:51;;;;;;;0.30;0.30;;;;;;;-1.09;70.88;96157.88;6100031;29;20083;-69
2023/12/20 12:04:05;;;;;;;0.10;0.10;;;;;;;-1.07;71.01;96156.94;6099563;29;20052;-68
2023/12/20 12:07:09;;;;;;;0.38;0.38;;;;;;;-1.05;70.88;96155.13;6099164;29;20048;-67
2023/12/20 12:10:14;;;;;;;0.50;0.45;;;;;;;-1.05;71.09;96157.72;6099229;29;20056;-67
2023/12/20 12:13:20;;;;;;;0.32;0.32;;;;;;;-1.02;71.01;96160.25;6099948;29;20141;-67
2023/12/20 12:16:22;;;;;;;1.17;0.50;;;;;;;-0.98;70.12;96138.56;6099363;29;20059;-68
2023/12/20 12:19:29;;;;;;;0.35;0.28;;;;;;;-0.96;70.78;96133.38;6099086;29;20146;-68
2023/12/20 12:22:36;;;;;;;0.30;0.30;;;;;;;-1.02;70.42;96129.25;6099744;29;20079;-67
2023/12/20 12:25:41;;;;;;;0.30;0.30;;;;;;;-1.01;70.66;96114.59;6099893;29;20075;-68
2023/12/20 12:28:47;;;;;;;0.85;0.30;;;;;;;-1.02;70.69;96108.59;6099662;29;20055;-67
2023/12/20 12:31:53;;;;;;;0.20;0.20;;;;;;;-0.87;70.35;96080.59;6099750;29;20372;-65
2023/12/20 12:34:56;;;;;;;0.28;0.28;;;;;;;-1.06;71.02;96033.84;6099022;29;20056;-66
2023/12/20 12:38:03;;;;;;;0.35;0.30;;;;;;;-1.06;71.99;96059.69;6099489;29;20052;-67
2023/12/20 12:41:07;;;;;;;0.28;0.28;;;;;;;-0.99;70.81;96046.53;6099192;29;20438;-66
2023/12/20 12:44:09;;;;;;;1.08;0.60;;;;;;;-0.84;70.22;96070.16;6099746;29;20422;-66
2023/12/20 12:47:13;;;;;;;1.38;0.70;;;;;;;-0.78;70.08;96064.78;6099371;29;20048;-67
2023/12/20 12:50:15;;;;;;;0.20;0.20;;;;;;;-0.64;70.10;96093.59;6099712;29;20135;-67
2023/12/20 12:53:21;;;;;;;0.60;0.30;;;;;;;-0.61;69.69;96077.97;6101625;29;20045;-67
2023/12/20 12:56:27;;;;;;;0.20;0.20;;;;;;;-0.60;69.23;96099.50;6099867;29;20134;-67
2023/12/20 12:59:32;;;;;;;0.20;0.20;;;;;;;-0.58;69.54;96088.22;6098977;29;20435;-67
2023/12/20 13:02:37;;;;;;;0.30;0.30;;;;;;;-0.58;69.47;96118.38;6099287;29;20417;-66
2023/12/20 13:05:42;;;;;;;0.10;0.10;;;;;;;-0.54;68.86;96110.50;6099272;29;20047;-66
2023/12/20 13:08:48;;;;;;;0.20;0.20;;;;;;;-0.51;69.26;96094.00;6099576;29;20395;-67
2023/12/20 13:11:53;;;;;;;0.25;0.25;;;;;;;-0.59;69.38;96135.63;6099204;29;20051;-67
2023/12/20 13:14:54;;;;;;;0.80;0.10;;;;;;;-0.43;68.67;96111.84;6102148;29;20075;-66
2023/12/20 13:18:01;;;;;;;0.10;0.10;;;;;;;-0.51;69.31;96091.41;6103789;29;20044;-69
2023/12/20 13:21:05;;;;;;;0.30;0.30;;;;;;;-0.54;69.02;96084.66;6103006;29;20055;-69
2023/12/20 13:24:06;;;;;;;0.20;0.20;;;;;;;-0.34;68.42;96093.44;6103395;29;20059;-68
2023/12/20 13:27:13;;;;;;;0.20;0.20;;;;;;;-0.25;68.48;96122.41;6103843;29;20491;-69
2023/12/20 13:30:20;;;;;;;0.20;0.20;;;;;;;-0.24;68.16;96123.25;6104209;29;20506;-67
2023/12/20 13:33:23;;;;;;;0.32;0.17;;;;;;;-0.29;68.19;96109.63;6103978;29;20709;-67
2023/12/20 13:36:27;;;;;;;0.10;0.10;;;;;;;-0.26;68.01;96128.47;6103598;29;20048;-68
2023/12/20 13:39:29;;;;;;;1.27;0.63;;;;;;;-0.10;67.74;96139.13;6102672;29;20056;-67
2023/12/20 13:42:31;;;;;;;0.20;0.20;;;;;;;-0.13;67.78;96147.00;6102617;29;20055;-68
2023/12/20 13:45:39;;;;;;;0.10;0.10;;;;;;;-0.29;68.25;96136.31;6103147;29;20043;-68
2023/12/20 13:48:41;;;;;;;0.20;0.20;;;;;;;-0.22;68.33;96121.47;6102582;29;20047;-68
2023/12/20 13:51:45;;;;;;;0.20;0.20;;;;;;;-0.17;68.21;96127.34;6103054;29;20051;-68
2023/12/20 13:54:53;;;;;;;0.45;0.25;;;;;;;-0.09;68.37;96145.97;6102987;29;20499;-68
2023/12/20 13:57:59;;;;;;;0.30;0.30;;;;;;;-0.17;68.71;96135.09;6102063;29;20044;-68
2023/12/20 14:01:03;;;;;;;0.22;0.10;;;;;;;-0.10;68.55;96123.63;6056522;29;20056;-69
2023/12/20 14:04:11;;;;;;;0.35;0.30;;;;;;;0.06;67.60;96104.97;6056138;29;20622;-67
2023/12/20 14:07:16;;;;;;;0.20;0.20;;;;;;;0.19;67.24;96108.81;6056225;29;20554;-70
2023/12/20 14:10:22;;;;;;;0.30;0.10;;;;;;;0.13;67.06;96109.88;6055460;29;20049;-69
2023/12/20 14:13:28;;;;;;;0.47;0.20;;;;;;;0.20;66.77;96120.88;6054718;29;20053;-67
2023/12/20 14:16:29;;;;;;;0.50;0.25;;;;;;;0.08;67.18;96113.53;6055826;29;20076;-69
2023/12/20 14:19:33;;;;;;;0.35;0.20;;;;;;;0.09;67.39;96110.06;6055194;29;20056;-68
2023/12/20 14:22:35;;;;;;;;;;;;;;;0.31;66.40;96126.50;6055019;29;20663;-66
2023/12/20 14:25:41;;;;;;;0.10;0.10;;;;;;;0.24;66.58;96135.38;6054770;29;20367;-68
2023/12/20 14:28:48;;;;;;;0.32;0.32;;;;;;;0.29;66.42;96124.88;6055616;29;20460;-69